Time;durP1;ratioP1;P1;durP2;ratioP2;P2;SDS_P1;SDS_P2;PMS_P1;PMS_P2;Temp;Humidity;BMP_temperature;BMP_pressure;BME280_temperature;BME280_humidity;BME280_pressure;Samples;Min_cycle;Max_cycle;Signal;HPM_P1;HPM_P2
2023/03/28 00:07:08;;;;;;;0.40;0.37;;;;;;;;;;20813489;28;20218;-80
2023/03/28 00:17:09;;;;;;;0.20;0.20;;;;;;;;;;20833722;28;20230;-81
2023/03/28 00:27:11;;;;;;;0.80;0.43;;;;;;;;;;20816321;28;20253;-81
2023/03/28 00:37:16;;;;;;;0.83;0.20;;;;;;;;;;20860246;28;20235;-80
2023/03/28 00:47:44;;;;;;;0.13;0.13;;;5.80;99.90;;;;;;20806015;28;20688;-82
2023/03/28 00:57:47;;;;;;;0.20;0.20;;;;;;;;;;20792930;28;20267;-81
2023/03/28 01:07:51;;;;;;;0.73;0.43;;;;;;;;;;20811386;28;20773;-82
2023/03/28 01:18:01;;;;;;;0.37;0.20;;;;;;;;;;20806183;28;20230;-84
2023/03/28 03:04:12;;;;;;;0.77;0.60;;;;;;;;;;21074400;27;20585;-70
2023/03/28 03:14:14;;;;;;;0.77;0.60;;;;;;;;;;21023155;28;20261;-69
2023/03/28 03:24:17;;;;;;;0.50;0.20;;;;;;;;;;21018850;28;20213;-69
2023/03/28 03:34:20;;;;;;;0.30;0.30;;;;;;;;;;21016375;28;20727;-69
2023/03/28 03:44:28;;;;;;;0.30;0.30;;;;;;;;;;21018779;28;20208;-69
2023/03/28 03:54:30;;;;;;;1.87;0.60;;;;;;;;;;21019168;28;20687;-69
2023/03/28 04:04:32;;;;;;;0.27;0.23;;;;;;;;;;21002502;28;20845;-69
2023/03/28 04:14:50;;;;;;;1.10;0.70;;;;;;;;;;20955208;28;20205;-70
2023/03/28 04:25:16;;;;;;;0.27;0.27;;;;;;;;;;20962575;28;20251;-69
2023/03/28 04:35:20;;;;;;;0.47;0.47;;;;;;;;;;20976726;28;20217;-69
2023/03/28 04:45:25;;;;;;;1.10;0.77;;;;;;;;;;20960393;28;20221;-69
2023/03/28 04:55:30;;;;;;;1.83;0.47;;;;;;;;;;20958856;28;20282;-69
2023/03/28 05:05:33;;;;;;;0.70;0.70;;;;;;;;;;20958480;28;20373;-68
2023/03/28 05:15:35;;;;;;;1.00;0.60;;;;;;;;;;20956162;28;20209;-68
2023/03/28 05:25:54;;;;;;;0.37;0.37;;;;;;;;;;20937875;28;20247;-68
2023/03/28 05:35:59;;;;;;;1.03;0.50;;;;;;;;;;20952740;28;20270;-68
2023/03/28 05:46:01;;;;;;;0.67;0.60;;;;;;;;;;20955210;28;20213;-68
2023/03/28 05:56:13;;;;;;;2.10;0.67;;;;;;;;;;20956397;28;20270;-66
2023/03/28 06:06:16;;;;;;;0.50;0.50;;;;;;;;;;20937956;28;20268;-66
2023/03/28 06:16:18;;;;;;;0.93;0.53;;;;;;;;;;20954057;28;20202;-69
2023/03/28 06:26:21;;;;;;;2.10;0.57;;;;;;;;;;20952749;28;20229;-69
2023/03/28 06:36:23;;;;;;;1.03;0.73;;;;;;;;;;20935973;28;20717;-68
2023/03/28 06:46:25;;;;;;;0.30;0.30;;;;;;;;;;20951920;28;20262;-69
2023/03/28 06:56:28;;;;;;;0.73;0.60;;;;;;;;;;20935245;28;20221;-69
2023/03/28 07:06:31;;;;;;;0.60;0.50;;;;;;;;;;20936939;28;20221;-68
2023/03/28 07:16:33;;;;;;;0.70;0.70;;;;;;;;;;20880478;28;20210;-68
2023/03/28 07:26:35;;;;;;;2.27;0.70;;;;;;;;;;20944973;28;20278;-68
2023/03/28 07:36:42;;;;;;;2.40;0.40;;;;;;;;;;20948051;28;20209;-68
2023/03/28 07:46:57;;;;;;;1.37;0.60;;;;;;;;;;20973664;28;20584;-69
2023/03/28 07:56:59;;;;;;;2.63;0.50;;;;;;;;;;20962775;28;20683;-69
2023/03/28 08:07:24;;;;;;;1.67;0.97;;;;;;;;;;20996615;28;20354;-69
2023/03/28 08:17:27;;;;;;;2.30;0.70;;;;;;;;;;20960562;28;20263;-69
2023/03/28 08:27:31;;;;;;;1.43;0.63;;;;;;;;;;20961011;28;20282;-69
2023/03/28 08:37:39;;;;;;;1.03;0.53;;;;;;;;;;20960838;28;20625;-69
2023/03/28 08:48:00;;;;;;;0.47;0.40;;;;;;;;;;20941822;28;20221;-68
2023/03/28 08:58:02;;;;;;;1.90;0.67;;;;;;;;;;20975780;28;21015;-69
2023/03/28 09:08:23;;;;;;;2.67;0.60;;;;;;;;;;20958019;28;20228;-69
2023/03/28 09:18:31;;;;;;;1.03;0.40;;;;;;;;;;20957381;28;20217;-69
2023/03/28 09:28:54;;;;;;;3.17;0.50;;;;;;;;;;20971657;28;20696;-69
2023/03/28 09:39:01;;;;;;;0.93;0.50;;;;;;;;;;20951216;28;20601;-69
2023/03/28 09:49:04;;;;;;;0.70;0.40;;;;;;;;;;20952986;28;20251;-69
2023/03/28 09:59:12;;;;;;;0.77;0.43;;;;;;;;;;20969840;28;20233;-69
2023/03/28 10:09:22;;;;;;;0.87;0.30;;;;;;;;;;20953356;28;20283;-69
2023/03/28 10:19:37;;;;;;;0.70;0.40;;;;;;;;;;20952188;28;20204;-68
2023/03/28 10:29:45;;;;;;;2.47;0.40;;;;;;;;;;20951792;28;20225;-68
2023/03/28 10:40:18;;;;;;;1.77;0.70;;;8.70;99.90;;;;;;20950981;28;20209;-67
2023/03/28 10:50:44;;;;;;;0.97;0.50;;;;;;;;;;20960222;28;20275;-68
2023/03/28 11:00:54;;;;;;;1.33;0.50;;;9.30;99.90;;;;;;20942569;28;20243;-68
2023/03/28 11:11:11;;;;;;;1.30;0.50;;;;;;;;;;20962568;28;20656;-70
2023/03/28 11:21:34;;;;;;;1.77;0.40;;;;;;;;;;20958814;28;20680;-70
2023/03/28 11:31:42;;;;;;;2.87;0.40;;;;;;;;;;20965946;28;20225;-69
2023/03/28 11:41:46;;;;;;;0.40;0.20;;;8.40;99.90;;;;;;20965430;28;20565;-68
2023/03/28 11:52:09;;;;;;;0.77;0.40;;;;;;;;;;20945577;28;20225;-68
2023/03/28 12:02:18;;;;;;;0.40;0.27;;;;;;;;;;20976061;28;20704;-68
2023/03/28 12:12:38;;;;;;;0.40;0.30;;;;;;;;;;20958899;28;20270;-69
2023/03/28 12:22:42;;;;;;;0.43;0.40;;;;;;;;;;20942172;28;20251;-70
2023/03/28 12:32:50;;;;;;;1.67;0.30;;;;;;;;;;20942210;28;20282;-68
2023/03/28 12:42:57;;;;;;;0.47;0.30;;;;;;;;;;20974496;28;20209;-69
2023/03/28 12:52:59;;;;;;;0.63;0.30;;;10.30;99.90;;;;;;20938461;28;20267;-69
2023/03/28 13:03:19;;;;;;;1.27;0.63;;;;;;;;;;20945230;28;20282;-70
2023/03/28 13:13:46;;;;;;;0.20;0.20;;;10.20;99.90;;;;;;20968560;28;20599;-70
2023/03/28 13:23:48;;;;;;;1.17;0.57;;;;;;;;;;20970305;28;20298;-70
2023/03/28 13:33:53;;;;;;;0.20;0.20;;;;;;;;;;20876317;28;20218;-69
2023/03/28 13:43:57;;;;;;;0.47;0.30;;;;;;;;;;20936337;28;20297;-69
2023/03/28 13:53:59;;;;;;;0.43;0.43;;;;;;;;;;20961929;28;20247;-69
2023/03/28 14:04:01;;;;;;;2.00;0.43;;;;;;;;;;20943919;28;20224;-69
2023/03/28 14:14:21;;;;;;;0.30;0.30;;;10.30;99.90;;;;;;20942692;28;20220;-70
2023/03/28 14:24:26;;;;;;;1.23;0.43;;;;;;;;;;20958760;28;20274;-69
2023/03/28 14:34:37;;;;;;;0.50;0.40;;;11.10;99.90;;;;;;20942701;28;20217;-70
2023/03/28 14:44:44;;;;;;;1.43;0.77;;;;;;;;;;20959183;28;20225;-69
2023/03/28 14:54:46;;;;;;;1.20;0.40;;;;;;;;;;20952481;28;20213;-70
2023/03/28 15:04:48;;;;;;;0.37;0.30;;;;;;;;;;20945464;28;20626;-69
2023/03/28 15:14:50;;;;;;;0.93;0.50;;;11.90;99.90;;;;;;20949332;28;20217;-68
2023/03/28 15:24:54;;;;;;;0.43;0.30;;;11.00;99.90;;;;;;20950254;28;20201;-69
2023/03/28 15:35:03;;;;;;;3.20;0.60;;;;;;;;;;20934195;28;20274;-70
2023/03/28 15:45:10;;;;;;;1.20;0.60;;;;;;;;;;20948759;28;20932;-69
2023/03/28 15:55:18;;;;;;;0.73;0.30;;;;;;;;;;20943654;28;20275;-69
2023/03/28 16:05:31;;;;;;;1.73;0.77;;;;;;;;;;20936313;28;20209;-70
2023/03/28 16:15:34;;;;;;;1.10;0.40;;;;;;;;;;20970790;28;20247;-70
2023/03/28 16:25:51;;;;;;;1.83;0.57;;;;;;;;;;20956602;28;20224;-70
2023/03/28 16:35:53;;;;;;;0.60;0.40;;;;;;;;;;20950298;28;20209;-69
2023/03/28 16:45:55;;;;;;;0.40;0.30;;;;;;;;;;20935838;28;20217;-70
2023/03/28 16:55:57;;;;;;;1.00;0.50;;;;;;;;;;20937389;28;20225;-71
2023/03/28 17:06:08;;;;;;;0.53;0.30;;;9.80;99.90;;;;;;20953406;28;20221;-71
2023/03/28 17:16:10;;;;;;;0.33;0.30;;;;;;;;;;20953651;28;20274;-70
2023/03/28 17:26:12;;;;;;;1.47;0.40;;;;;;;;;;20935933;28;20247;-70
2023/03/28 17:36:19;;;;;;;13.23;7.20;;;;;;;;;;20914805;22;20225;-68
2023/03/28 17:46:21;;;;;;;0.77;0.40;;;;;;;;;;20899838;28;20264;-67
2023/03/28 17:56:23;;;;;;;2.40;0.80;;;;;;;;;;20827324;28;20253;-67
2023/03/28 18:06:25;;;;;;;0.87;0.60;;;;;;;;;;20814224;28;20276;-68
2023/03/28 18:16:27;;;;;;;1.37;0.67;;;;;;;;;;20813632;28;20210;-67
2023/03/28 18:26:30;;;;;;;2.17;0.50;;;;;;;;;;20812992;28;20626;-68
2023/03/28 18:36:32;;;;;;;1.37;0.80;;;;;;;;;;20814588;28;20222;-68
2023/03/28 18:46:33;;;;;;;1.20;0.70;;;;;;;;;;20812546;28;20218;-68
2023/03/28 18:56:35;;;;;;;1.73;0.70;;;;;;;;;;20812925;28;20210;-69
2023/03/28 19:06:37;;;;;;;1.57;0.70;;;;;;;;;;20811714;28;21015;-68
2023/03/28 19:16:39;;;;;;;1.43;0.90;;;;;;;;;;20812225;28;20211;-67
2023/03/28 19:26:41;;;;;;;2.00;1.23;;;;;;;;;;20809282;28;20226;-67
2023/03/28 19:36:42;;;;;;;2.50;1.20;;;;;;;;;;20810994;28;20272;-68
2023/03/28 19:46:44;;;;;;;1.30;0.80;;;;;;;;;;20824552;28;20284;-67
2023/03/28 19:56:47;;;;;;;1.20;1.10;;;;;;;;;;20825725;28;20670;-68
2023/03/28 20:06:49;;;;;;;0.67;0.40;;;;;;;;;;20826379;28;20257;-67
2023/03/28 20:16:50;;;;;;;1.40;0.70;;;;;;;;;;20825945;28;20693;-68
2023/03/28 20:26:52;;;;;;;1.63;0.80;;;;;;;;;;20823944;28;20219;-67
2023/03/28 20:36:55;;;;;;;1.23;0.70;;;;;;;;;;20823179;28;20280;-67
2023/03/28 20:46:56;;;;;;;1.30;0.67;;;;;;;;;;20824807;28;20567;-67
2023/03/28 20:56:58;;;;;;;1.13;0.60;;;;;;;;;;20825823;28;20211;-67
2023/03/28 21:07:01;;;;;;;1.13;0.50;;;;;;;;;;20825783;28;20234;-67
2023/03/28 21:17:06;;;;;;;1.10;0.60;;;;;;;;;;20825557;28;20214;-68
2023/03/28 21:27:08;;;;;;;1.33;0.70;;;;;;;;;;20825478;28;20206;-68
2023/03/28 21:37:13;;;;;;;1.00;0.50;;;;;;;;;;20824457;28;20238;-68
2023/03/28 21:47:14;;;;;;;0.50;0.40;;;;;;;;;;20823801;28;20693;-68
2023/03/28 21:57:16;;;;;;;2.03;1.30;;;;;;;;;;20822985;28;20240;-68
2023/03/28 22:07:18;;;;;;;0.67;0.50;;;10.70;99.90;;;;;;20835719;28;20241;-67
2023/03/28 22:17:21;;;;;;;1.40;0.30;;;;;;;;;;20822987;28;20260;-68
2023/03/28 22:27:22;;;;;;;1.23;0.40;;;;;;;;;;20820846;28;20214;-68
2023/03/28 23:21:26;;;;;;;0.50;0.30;;;;;;;;;;20975617;28;20587;-67
2023/03/28 23:31:28;;;;;;;0.40;0.40;;;;;;;;;;20967946;22;20226;-69
2023/03/28 23:41:30;;;;;;;0.50;0.30;;;;;;;;;;20907038;28;20201;-69
2023/03/28 23:51:32;;;;;;;0.70;0.37;;;;;;;;;;20968858;28;20205;-68
